createdAt,value
2022-07-25T00:02:55.262Z,11.50
2022-07-25T00:05:57.289Z,11.75
2022-07-25T00:08:59.499Z,12.75
2022-07-25T00:12:01.733Z,11.25
2022-07-25T00:15:04.739Z,13.00
2022-07-25T00:18:06.747Z,11.00
2022-07-25T00:21:09.103Z,11.00
2022-07-25T00:24:11.180Z,12.00
2022-07-25T00:27:13.384Z,12.00
2022-07-25T00:30:15.501Z,10.00
2022-07-25T00:33:17.807Z,9.25
2022-07-25T00:36:19.927Z,11.50
2022-07-25T00:39:22.127Z,11.50
2022-07-25T00:42:24.300Z,14.00
2022-07-25T00:45:26.674Z,9.50
2022-07-25T00:48:29.046Z,12.00
2022-07-25T00:51:31.648Z,10.00
2022-07-25T00:54:33.704Z,11.00
2022-07-25T00:57:35.975Z,13.25
2022-07-25T01:00:38.025Z,16.00
2022-07-25T01:03:40.277Z,6.00
2022-07-25T01:06:42.466Z,10.00
2022-07-25T01:09:44.757Z,11.75
2022-07-25T01:12:55.050Z,12.75
2022-07-25T01:15:57.288Z,12.25
2022-07-25T01:18:59.823Z,14.00
2022-07-25T01:22:02.623Z,14.00
2022-07-25T01:25:04.991Z,13.00
2022-07-25T01:28:07.242Z,12.50
2022-07-25T01:31:09.472Z,11.50
2022-07-25T01:34:12.175Z,11.00
2022-07-25T01:37:14.305Z,9.00
2022-07-25T01:40:16.567Z,15.50
2022-07-25T01:43:18.907Z,13.00
2022-07-25T01:46:21.857Z,9.00
2022-07-25T01:49:26.770Z,14.50
2022-07-25T01:52:29.064Z,11.50
2022-07-25T01:55:31.176Z,13.00
2022-07-25T01:58:34.778Z,13.75
2022-07-25T02:01:37.568Z,11.75
2022-07-25T02:04:40.107Z,14.00
2022-07-25T02:07:42.265Z,16.25
2022-07-25T02:10:44.592Z,16.00
2022-07-25T02:13:46.855Z,15.00
2022-07-25T02:16:49.626Z,11.75
2022-07-25T02:19:53.009Z,13.75
2022-07-25T02:22:55.226Z,15.75
2022-07-25T02:25:57.378Z,16.75
2022-07-25T02:28:59.589Z,19.00
2022-07-25T02:32:01.646Z,16.50
2022-07-25T02:35:05.470Z,10.75
2022-07-25T02:38:19.737Z,16.75
2022-07-25T02:41:21.981Z,16.25
2022-07-25T02:44:24.173Z,15.00
2022-07-25T02:47:26.418Z,11.25
2022-07-25T02:50:29.059Z,14.25
2022-07-25T02:53:55.510Z,15.00
2022-07-25T02:56:53.642Z,19.75
2022-07-25T02:59:55.982Z,18.75
2022-07-25T03:02:58.332Z,15.75
2022-07-25T03:06:00.731Z,16.50
2022-07-25T03:09:02.851Z,15.50
2022-07-25T03:12:05.622Z,18.50
2022-07-25T03:15:08.526Z,20.75
2022-07-25T03:18:10.754Z,17.75
2022-07-25T03:21:15.991Z,20.75
2022-07-25T03:24:19.112Z,16.50
2022-07-25T03:27:21.143Z,17.75
2022-07-25T03:30:23.659Z,21.50
2022-07-25T03:33:25.900Z,21.25
2022-07-25T03:36:28.352Z,15.75
2022-07-25T03:39:30.569Z,16.75
2022-07-25T03:42:35.300Z,18.50
2022-07-25T03:45:37.813Z,19.00
2022-07-25T03:48:40.198Z,16.25
2022-07-25T03:51:42.491Z,13.25
2022-07-25T03:54:44.700Z,16.25
2022-07-25T03:57:46.752Z,16.50
2022-07-25T04:00:49.076Z,14.50
2022-07-25T04:03:51.138Z,14.50
2022-07-25T04:06:53.365Z,12.50
2022-07-25T04:09:55.381Z,17.25
2022-07-25T04:12:57.657Z,14.25
2022-07-25T04:15:59.603Z,12.25
2022-07-25T04:19:02.119Z,14.50
2022-07-25T04:22:04.182Z,13.50
2022-07-25T04:25:06.858Z,14.25
2022-07-25T04:28:09.187Z,15.00
2022-07-25T04:31:11.551Z,13.50
2022-07-25T04:34:13.537Z,15.25
2022-07-25T04:37:15.734Z,16.50
2022-07-25T04:40:17.878Z,13.00
2022-07-25T04:43:20.820Z,15.75
2022-07-25T04:46:23.530Z,15.00
2022-07-25T04:49:25.918Z,17.75
2022-07-25T04:52:28.256Z,16.25
2022-07-25T04:55:30.577Z,17.00
2022-07-25T04:58:32.789Z,16.50
2022-07-25T05:01:35.498Z,15.75
2022-07-25T05:04:41.106Z,18.50
2022-07-25T05:07:47.833Z,21.50
2022-07-25T05:10:50.663Z,17.75
2022-07-25T05:13:56.922Z,19.50
2022-07-25T05:16:59.557Z,20.50
2022-07-25T05:20:02.164Z,20.25
2022-07-25T05:23:04.218Z,26.50
2022-07-25T05:26:06.604Z,21.00
2022-07-25T05:29:08.652Z,23.25
2022-07-25T05:32:11.472Z,19.50
2022-07-25T05:35:31.162Z,17.50
2022-07-25T05:38:33.991Z,23.25
2022-07-25T05:41:36.189Z,21.00
2022-07-25T05:44:47.710Z,21.00
2022-07-25T05:48:11.122Z,19.00
2022-07-25T05:51:13.857Z,17.25
2022-07-25T05:54:16.231Z,18.50
2022-07-25T05:57:28.092Z,15.00
2022-07-25T06:00:31.218Z,17.75
2022-07-25T06:03:34.391Z,18.00
2022-07-25T06:06:36.601Z,19.25
2022-07-25T06:09:38.997Z,16.25
2022-07-25T06:12:41.092Z,15.50
2022-07-25T06:15:43.622Z,15.00
2022-07-25T06:18:47.719Z,16.25
2022-07-25T06:21:50.367Z,12.00
2022-07-25T06:24:52.569Z,10.33
2022-07-25T06:27:55.593Z,11.67
2022-07-25T06:30:58.154Z,14.33
2022-07-25T06:34:00.602Z,12.00
2022-07-25T06:37:03.346Z,14.67
2022-07-25T06:40:09.826Z,10.67
2022-07-25T06:43:12.517Z,12.00
2022-07-25T06:46:15.136Z,11.33
2022-07-25T06:49:17.859Z,11.33
2022-07-25T06:52:23.411Z,11.00
2022-07-25T06:55:25.768Z,10.67
2022-07-25T06:58:28.971Z,10.33
2022-07-25T07:01:31.201Z,9.33
2022-07-25T07:04:33.524Z,12.67
2022-07-25T07:07:35.795Z,9.67
2022-07-25T07:10:40.431Z,7.00
2022-07-25T07:13:42.815Z,9.00
2022-07-25T07:16:45.280Z,9.00
2022-07-25T07:19:47.637Z,8.67
2022-07-25T07:22:50.861Z,9.00
2022-07-25T07:25:54.854Z,8.00
2022-07-25T07:28:57.513Z,10.33
2022-07-25T07:31:59.878Z,9.00
2022-07-25T07:35:02.654Z,9.67
2022-07-25T07:38:05.253Z,9.33
2022-07-25T07:41:08.517Z,10.00
2022-07-25T07:44:10.660Z,7.33
2022-07-25T07:47:14.680Z,12.00
2022-07-25T07:50:19.275Z,8.00
2022-07-25T07:53:22.409Z,8.00
2022-07-25T07:56:34.953Z,9.00
2022-07-25T07:59:39.054Z,5.33
2022-07-25T08:02:46.465Z,9.00
2022-07-25T08:05:51.909Z,6.33
2022-07-25T08:08:54.579Z,7.00
2022-07-25T08:11:57.893Z,6.67
2022-07-25T08:15:01.547Z,7.33
2022-07-25T08:18:04.830Z,5.67
2022-07-25T08:21:20.158Z,6.33
2022-07-25T08:24:22.916Z,5.00
2022-07-25T08:27:25.726Z,8.33
2022-07-25T08:30:28.108Z,7.33
2022-07-25T08:33:30.189Z,8.75
2022-07-25T08:36:34.887Z,6.00
2022-07-25T08:39:37.177Z,5.67
2022-07-25T08:42:40.464Z,5.50
2022-07-25T08:45:45.926Z,7.00
2022-07-25T08:48:52.381Z,6.00
2022-07-25T08:51:56.598Z,6.25
2022-07-25T08:55:00.102Z,5.75
2022-07-25T08:58:02.699Z,6.00
2022-07-25T09:01:05.633Z,5.25
2022-07-25T09:04:11.064Z,5.75
2022-07-25T09:07:13.752Z,5.00
2022-07-25T09:10:27.520Z,7.25
2022-07-25T09:13:31.389Z,6.75
2022-07-25T09:16:40.448Z,7.25
2022-07-25T09:21:28.881Z,6.50
2022-07-25T09:24:30.835Z,4.25
2022-07-25T09:27:34.628Z,4.25
2022-07-25T09:41:02.393Z,4.75
2022-07-25T09:44:23.197Z,5.00
2022-07-25T09:47:25.666Z,5.00
2022-07-25T09:50:30.478Z,4.50
2022-07-25T09:58:21.937Z,7.00
2022-07-25T10:01:29.811Z,4.75
2022-07-25T10:04:56.218Z,4.00
2022-07-25T10:08:49.601Z,3.50
2022-07-25T10:12:09.962Z,6.75
2022-07-25T10:20:29.162Z,4.75
2022-07-25T10:23:32.619Z,6.00
2022-07-25T10:26:40.438Z,6.00
2022-07-25T10:29:43.283Z,5.75
2022-07-25T10:32:58.232Z,4.50
2022-07-25T10:36:08.492Z,6.50
2022-07-25T10:39:13.809Z,5.00
2022-07-25T10:42:18.858Z,6.00
2022-07-25T10:45:38.306Z,4.40
2022-07-25T10:48:42.639Z,5.20
2022-07-25T10:52:07.305Z,4.20
2022-07-25T10:55:38.633Z,6.40
2022-07-25T11:03:45.242Z,5.60
2022-07-25T11:07:10.121Z,6.20
2022-07-25T11:10:12.788Z,7.00
2022-07-25T11:18:50.297Z,5.80
2022-07-25T11:22:06.189Z,6.00
2022-07-25T11:25:45.768Z,6.60
2022-07-25T11:28:58.547Z,6.40
2022-07-25T11:32:22.323Z,5.00
2022-07-25T11:46:19.094Z,5.80
2022-07-25T11:55:37.311Z,6.20
2022-07-25T11:59:18.171Z,8.00
2022-07-25T12:07:55.429Z,4.00
2022-07-25T12:11:24.734Z,8.20
2022-07-25T12:14:32.302Z,5.00
2022-07-25T12:17:44.337Z,7.00
2022-07-25T12:20:48.590Z,5.40
2022-07-25T12:23:54.972Z,5.40
2022-07-25T12:27:01.106Z,4.40
2022-07-25T12:30:06.612Z,5.80
2022-07-25T12:33:10.799Z,6.20
2022-07-25T12:36:17.232Z,5.00
2022-07-25T12:39:25.126Z,5.20
2022-07-25T12:42:29.128Z,5.80
2022-07-25T12:45:38.703Z,5.40
2022-07-25T12:48:41.658Z,5.40
2022-07-25T12:51:46.909Z,4.00
2022-07-25T13:00:47.252Z,3.00
2022-07-25T13:53:09.379Z,5.50
2022-07-25T13:56:49.227Z,6.00
2022-07-25T14:00:16.589Z,5.25
2022-07-25T14:03:25.554Z,5.00
2022-07-25T14:26:55.817Z,6.50
2022-07-25T14:30:12.264Z,6.00
2022-07-25T14:39:10.573Z,8.00
2022-07-25T14:42:30.904Z,5.75
2022-07-25T14:45:52.268Z,4.25
2022-07-25T14:54:06.576Z,7.75
2022-07-25T14:57:16.116Z,6.00
2022-07-25T15:00:29.569Z,5.75
2022-07-25T15:03:32.324Z,9.00
2022-07-25T15:06:35.988Z,8.00
2022-07-25T15:09:39.540Z,6.75
2022-07-25T15:13:31.060Z,8.00
2022-07-25T15:16:42.993Z,7.00
2022-07-25T15:19:57.900Z,6.00
2022-07-25T15:23:36.236Z,5.75
2022-07-25T15:26:46.587Z,6.50
2022-07-25T15:29:52.034Z,5.50
2022-07-25T15:33:01.169Z,5.00
2022-07-25T15:45:58.684Z,5.00
2022-07-25T15:49:12.595Z,4.25
2022-07-25T15:52:19.489Z,4.00
2022-07-25T15:56:12.462Z,7.00
2022-07-25T15:59:45.100Z,5.00
2022-07-25T16:04:34.246Z,5.00
2022-07-25T16:11:43.763Z,7.75
2022-07-25T16:19:47.433Z,7.25
2022-07-25T16:22:56.429Z,3.25
2022-07-25T16:26:15.721Z,6.25
2022-07-25T16:30:01.064Z,7.00
2022-07-25T16:33:03.648Z,6.25
2022-07-25T16:36:11.403Z,5.50
2022-07-25T16:39:14.287Z,8.00
2022-07-25T16:47:51.910Z,6.00
2022-07-25T16:51:07.541Z,7.00
2022-07-25T16:54:27.970Z,6.25
2022-07-25T16:57:33.478Z,6.75
2022-07-25T17:00:39.782Z,6.50
2022-07-25T17:03:46.138Z,7.00
2022-07-25T17:06:56.045Z,6.75
2022-07-25T17:10:15.173Z,5.00
2022-07-25T17:13:18.019Z,5.25
2022-07-25T17:16:24.636Z,5.75
2022-07-25T17:19:40.202Z,6.00
2022-07-25T17:23:05.611Z,7.00
2022-07-25T17:26:20.089Z,6.00
2022-07-25T17:29:45.884Z,5.75
2022-07-25T17:33:18.121Z,5.75
2022-07-25T17:36:27.500Z,8.50
2022-07-25T17:39:34.451Z,7.00
2022-07-25T17:42:45.077Z,6.00
2022-07-25T17:45:48.187Z,9.00
2022-07-25T17:48:50.719Z,5.00
2022-07-25T17:51:53.140Z,5.00
2022-07-25T17:54:55.710Z,6.33
2022-07-25T17:57:59.745Z,6.00
2022-07-25T18:01:04.807Z,7.00
2022-07-25T18:04:12.038Z,10.00
2022-07-25T18:07:14.649Z,7.00
2022-07-25T18:10:18.552Z,8.00
2022-07-25T18:13:22.409Z,6.00
2022-07-25T18:16:24.616Z,7.33
2022-07-25T18:19:27.369Z,6.33
2022-07-25T18:22:29.820Z,7.00
2022-07-25T18:25:32.518Z,7.33
2022-07-25T18:28:37.530Z,5.67
2022-07-25T18:31:40.116Z,8.33
2022-07-25T18:34:42.910Z,8.67
2022-07-25T18:37:45.471Z,7.33
2022-07-25T18:40:49.450Z,8.00
2022-07-25T18:43:53.127Z,7.00
2022-07-25T18:46:55.477Z,7.67
2022-07-25T18:49:59.002Z,6.00
2022-07-25T18:53:01.465Z,5.00
2022-07-25T18:56:05.945Z,7.33
2022-07-25T18:59:08.689Z,9.00
2022-07-25T19:02:12.546Z,6.67
2022-07-25T19:05:15.990Z,8.33
2022-07-25T19:08:18.713Z,6.67
2022-07-25T19:11:21.035Z,6.33
2022-07-25T19:14:26.377Z,8.00
2022-07-25T19:17:28.757Z,7.00
2022-07-25T19:20:31.746Z,7.33
2022-07-25T19:23:34.301Z,6.33
2022-07-25T19:26:38.017Z,8.00
2022-07-25T19:29:41.712Z,9.00
2022-07-25T19:32:44.421Z,10.33
2022-07-25T19:35:46.935Z,7.00
2022-07-25T19:38:49.610Z,8.33
2022-07-25T19:41:52.505Z,11.00
2022-07-25T19:44:55.426Z,8.00
2022-07-25T19:47:58.069Z,9.00
2022-07-25T19:51:02.040Z,12.33
2022-07-25T19:54:05.021Z,9.33
2022-07-25T19:57:07.950Z,10.00
2022-07-25T20:00:11.209Z,9.00
2022-07-25T20:03:16.556Z,9.67
2022-07-25T20:06:25.721Z,9.00
2022-07-25T20:09:30.485Z,8.00
2022-07-25T20:12:34.532Z,10.67
2022-07-25T20:15:37.424Z,9.00
2022-07-25T20:18:39.878Z,10.00
2022-07-25T20:21:44.514Z,9.33
2022-07-25T20:24:46.744Z,9.00
2022-07-25T20:27:49.995Z,10.33
2022-07-25T20:30:52.635Z,10.00
2022-07-25T20:33:55.517Z,10.67
2022-07-25T20:36:57.937Z,10.67
2022-07-25T20:40:00.811Z,11.00
2022-07-25T20:43:05.065Z,11.00
2022-07-25T20:46:09.783Z,12.00
2022-07-25T20:49:13.902Z,10.67
2022-07-25T20:52:16.680Z,12.67
2022-07-25T20:55:19.242Z,11.00
2022-07-25T20:58:21.745Z,11.00
2022-07-25T21:01:24.293Z,12.00
2022-07-25T21:04:26.722Z,11.67
2022-07-25T21:07:29.058Z,13.00
2022-07-25T21:10:31.628Z,12.00
2022-07-25T21:13:33.832Z,10.00
2022-07-25T21:16:36.582Z,11.00
2022-07-25T21:19:39.169Z,12.00
2022-07-25T21:22:42.890Z,14.00
2022-07-25T21:25:45.170Z,12.00
2022-07-25T21:28:47.718Z,12.33
2022-07-25T21:31:49.972Z,13.00
2022-07-25T21:34:52.660Z,11.00
2022-07-25T21:37:55.041Z,10.00
2022-07-25T21:41:04.699Z,14.33
2022-07-25T21:44:16.449Z,10.00
2022-07-25T21:47:19.539Z,10.33
2022-07-25T21:50:43.916Z,12.00
2022-07-25T21:53:48.103Z,13.00
2022-07-25T21:56:52.487Z,11.50
2022-07-25T21:59:55.702Z,11.50
2022-07-25T22:03:00.773Z,12.00
2022-07-25T22:06:03.818Z,12.00
2022-07-25T22:09:07.322Z,11.25
2022-07-25T22:12:20.952Z,12.00
2022-07-25T22:15:23.618Z,11.25
2022-07-25T22:18:26.702Z,11.25
2022-07-25T22:21:52.898Z,11.00
2022-07-25T22:24:59.325Z,11.33
2022-07-25T22:28:02.035Z,11.50
2022-07-25T22:31:05.321Z,14.50
2022-07-25T22:34:08.044Z,13.75
2022-07-25T22:37:10.867Z,12.50
2022-07-25T22:40:13.786Z,14.50
2022-07-25T22:43:16.801Z,12.00
2022-07-25T22:46:19.698Z,12.00
2022-07-25T22:49:25.000Z,13.00
2022-07-25T22:52:27.821Z,12.00
2022-07-25T22:55:39.823Z,12.75
2022-07-25T22:58:48.759Z,14.25
2022-07-25T23:01:51.673Z,14.25
2022-07-25T23:04:54.236Z,14.00
2022-07-25T23:07:56.892Z,13.25
2022-07-25T23:10:59.303Z,14.50
2022-07-25T23:14:01.741Z,11.00
2022-07-25T23:17:22.416Z,13.50
2022-07-25T23:20:24.751Z,13.75
2022-07-25T23:23:26.940Z,14.00
2022-07-25T23:26:29.563Z,14.75
2022-07-25T23:29:34.955Z,14.25
2022-07-25T23:32:37.543Z,15.50
2022-07-25T23:35:50.514Z,14.00
2022-07-25T23:38:53.225Z,14.00
2022-07-25T23:41:55.669Z,12.00
2022-07-25T23:48:37.478Z,15.00
2022-07-25T23:51:40.131Z,12.00
2022-07-25T23:54:42.332Z,12.75
2022-07-25T23:57:44.947Z,13.25
